createdAt,value
2019-03-24T00:00:07.057Z,91.90
2019-03-24T00:01:41.042Z,91.80
2019-03-24T00:03:03.205Z,91.90
2019-03-24T00:04:19.769Z,92.10
2019-03-24T00:05:37.141Z,92.10
2019-03-24T00:06:54.421Z,92.10
2019-03-24T00:08:11.034Z,92.10
2019-03-24T00:09:27.383Z,91.90
2019-03-24T00:10:44.043Z,91.90
2019-03-24T00:12:00.593Z,91.90
2019-03-24T00:13:17.105Z,92.00
2019-03-24T00:14:34.338Z,92.00
2019-03-24T00:15:51.516Z,92.00
2019-03-24T00:17:07.971Z,92.00
2019-03-24T00:18:25.187Z,92.00
2019-03-24T00:19:41.776Z,92.00
2019-03-24T00:20:58.730Z,91.90
2019-03-24T00:22:15.863Z,92.00
2019-03-24T00:23:33.101Z,92.00
2019-03-24T00:24:48.541Z,92.10
2019-03-24T00:26:12.928Z,92.10
2019-03-24T00:27:37.328Z,92.10
2019-03-24T00:28:54.202Z,92.20
2019-03-24T00:30:10.534Z,92.30
2019-03-24T00:31:26.940Z,92.40
2019-03-24T00:32:43.381Z,92.40
2019-03-24T00:33:59.700Z,92.40
2019-03-24T00:35:16.267Z,92.50
2019-03-24T00:36:32.843Z,92.50
2019-03-24T00:37:50.147Z,92.60
2019-03-24T00:39:06.650Z,92.60
2019-03-24T00:40:23.633Z,92.60
2019-03-24T00:41:40.812Z,92.60
2019-03-24T00:42:58.250Z,92.70
2019-03-24T00:44:15.325Z,92.70
2019-03-24T00:45:36.865Z,92.70
2019-03-24T00:46:50.710Z,92.80
2019-03-24T00:48:07.530Z,92.80
2019-03-24T00:49:24.609Z,92.90
2019-03-24T00:50:41.928Z,92.90
2019-03-24T00:51:58.693Z,93.00
2019-03-24T00:53:15.285Z,93.00
2019-03-24T00:54:32.233Z,92.90
2019-03-24T00:55:48.772Z,92.90
2019-03-24T00:57:05.076Z,92.90
2019-03-24T00:58:21.957Z,93.00
2019-03-24T00:59:38.395Z,93.00
2019-03-24T01:00:55.077Z,93.10
2019-03-24T01:02:11.557Z,93.10
2019-03-24T01:03:28.178Z,93.20
2019-03-24T01:04:45.413Z,93.30
2019-03-24T01:06:02.022Z,93.30
2019-03-24T01:07:22.552Z,93.50
2019-03-24T01:08:46.928Z,93.50
2019-03-24T01:10:03.632Z,93.40
2019-03-24T01:11:20.793Z,93.50
2019-03-24T01:12:37.210Z,93.50
2019-03-24T01:13:53.840Z,93.50
2019-03-24T01:15:11.044Z,93.50
2019-03-24T01:16:28.241Z,93.50
2019-03-24T01:17:44.589Z,93.50
2019-03-24T01:19:02.655Z,93.40
2019-03-24T01:20:19.837Z,93.40
2019-03-24T01:21:36.301Z,93.30
2019-03-24T01:22:53.278Z,93.30
2019-03-24T01:24:09.805Z,93.30
2019-03-24T01:25:26.301Z,93.30
2019-03-24T01:26:42.587Z,93.30
2019-03-24T01:27:59.644Z,93.50
2019-03-24T01:29:16.191Z,93.30
2019-03-24T01:30:33.464Z,93.40
2019-03-24T01:31:50.669Z,93.40
2019-03-24T01:33:07.331Z,93.40
2019-03-24T01:34:23.837Z,93.30
2019-03-24T01:35:40.739Z,93.20
2019-03-24T01:36:57.225Z,93.20
2019-03-24T01:38:13.544Z,93.30
2019-03-24T01:39:30.400Z,93.40
2019-03-24T01:40:46.888Z,93.50
2019-03-24T01:42:03.372Z,93.60
2019-03-24T01:43:19.949Z,93.60
2019-03-24T01:44:36.784Z,93.70
2019-03-24T01:45:58.430Z,93.70
2019-03-24T01:47:10.398Z,93.80
2019-03-24T01:48:26.845Z,93.90
2019-03-24T01:49:43.709Z,93.90
2019-03-24T01:51:00.051Z,93.80
2019-03-24T01:52:16.725Z,93.80
2019-03-24T01:53:33.628Z,93.90
2019-03-24T01:54:50.655Z,93.90
2019-03-24T01:56:07.174Z,93.90
2019-03-24T01:57:23.496Z,94.10
2019-03-24T01:58:40.522Z,94.10
2019-03-24T01:59:56.833Z,93.90
2019-03-24T02:01:13.505Z,93.90
2019-03-24T02:02:29.897Z,93.90
2019-03-24T02:03:46.424Z,94.00
2019-03-24T02:05:02.935Z,93.90
2019-03-24T02:06:19.378Z,93.90
2019-03-24T02:07:35.736Z,93.90
2019-03-24T02:08:52.961Z,93.90
2019-03-24T02:10:09.482Z,93.90
2019-03-24T02:11:25.806Z,93.90
2019-03-24T02:12:42.320Z,94.00
2019-03-24T02:13:59.497Z,94.10
2019-03-24T02:15:15.969Z,94.10
2019-03-24T02:16:32.803Z,94.20
2019-03-24T02:17:49.393Z,94.20
2019-03-24T02:19:06.060Z,94.10
2019-03-24T02:20:22.568Z,94.10
2019-03-24T02:21:38.028Z,94.20
2019-03-24T02:23:02.394Z,94.20
2019-03-24T02:24:18.890Z,94.30
2019-03-24T02:25:35.595Z,94.40
2019-03-24T02:26:51.970Z,94.40
2019-03-24T02:28:08.981Z,94.40
2019-03-24T02:29:25.555Z,94.30
2019-03-24T02:30:42.805Z,94.40
2019-03-24T02:31:59.226Z,94.50
2019-03-24T02:33:15.769Z,94.60
2019-03-24T02:34:33.072Z,94.70
2019-03-24T02:35:49.731Z,94.60
2019-03-24T02:37:06.979Z,94.50
2019-03-24T02:38:23.569Z,94.50
2019-03-24T02:39:40.301Z,94.60
2019-03-24T02:40:57.100Z,94.60
2019-03-24T02:42:14.146Z,94.70
2019-03-24T02:43:30.529Z,94.70
2019-03-24T02:44:46.901Z,94.60
2019-03-24T02:46:03.393Z,94.50
2019-03-24T02:47:19.804Z,94.60
2019-03-24T02:48:36.337Z,94.80
2019-03-24T02:49:53.555Z,94.60
2019-03-24T02:51:10.024Z,94.60
2019-03-24T02:52:26.405Z,94.70
2019-03-24T02:53:43.671Z,94.70
2019-03-24T02:55:00.390Z,94.70
2019-03-24T02:56:16.934Z,94.70
2019-03-24T02:57:33.365Z,94.70
2019-03-24T02:58:50.159Z,94.70
2019-03-24T03:00:08.095Z,94.70
2019-03-24T03:01:27.665Z,94.80
2019-03-24T03:02:44.546Z,94.60
2019-03-24T03:04:01.058Z,94.60
2019-03-24T03:05:17.619Z,94.60
2019-03-24T03:06:34.248Z,94.60
2019-03-24T03:07:50.711Z,94.50
2019-03-24T03:09:07.445Z,94.40
2019-03-24T03:10:24.045Z,94.50
2019-03-24T03:11:41.455Z,94.50
2019-03-24T03:12:57.826Z,94.40
2019-03-24T03:14:14.186Z,94.30
2019-03-24T03:15:30.661Z,94.40
2019-03-24T03:16:47.044Z,94.40
2019-03-24T03:18:03.583Z,94.40
2019-03-24T03:19:19.933Z,94.50
2019-03-24T03:20:37.007Z,94.50
2019-03-24T03:21:53.485Z,94.50
2019-03-24T03:23:10.723Z,94.40
2019-03-24T03:24:27.085Z,94.40
2019-03-24T03:25:44.149Z,94.40
2019-03-24T03:27:00.485Z,94.40
2019-03-24T03:28:17.382Z,94.40
2019-03-24T03:29:34.154Z,94.50
2019-03-24T03:30:51.617Z,94.50
2019-03-24T03:32:08.258Z,94.60
2019-03-24T03:33:24.759Z,94.60
2019-03-24T03:34:41.086Z,94.60
2019-03-24T03:35:58.150Z,94.60
2019-03-24T03:37:14.671Z,94.60
2019-03-24T03:38:31.174Z,94.60
2019-03-24T03:39:48.070Z,94.60
2019-03-24T03:41:04.517Z,94.60
2019-03-24T03:42:20.969Z,94.70
2019-03-24T03:43:37.261Z,94.80
2019-03-24T03:44:54.020Z,94.90
2019-03-24T03:46:10.387Z,95.00
2019-03-24T03:47:27.498Z,95.00
2019-03-24T03:48:43.897Z,94.90
2019-03-24T03:50:01.062Z,94.90
2019-03-24T03:51:17.535Z,94.80
2019-03-24T03:52:34.218Z,94.80
2019-03-24T03:53:50.625Z,94.80
2019-03-24T03:55:07.257Z,94.80
2019-03-24T03:56:23.846Z,94.70
2019-03-24T03:57:40.229Z,94.50
2019-03-24T03:58:56.633Z,94.40
2019-03-24T04:00:13.158Z,94.40
2019-03-24T04:01:30.181Z,94.50
2019-03-24T04:02:47.258Z,94.50
2019-03-24T04:04:03.754Z,94.50
2019-03-24T04:05:19.245Z,94.60
2019-03-24T04:06:43.605Z,94.60
2019-03-24T04:08:00.358Z,94.50
2019-03-24T04:09:17.304Z,94.50
2019-03-24T04:10:33.720Z,94.40
2019-03-24T04:11:50.239Z,94.30
2019-03-24T04:13:06.668Z,94.30
2019-03-24T04:14:23.533Z,94.30
2019-03-24T04:15:39.041Z,94.30
2019-03-24T04:18:39.915Z,94.30
2019-03-24T04:19:56.641Z,94.50
2019-03-24T04:21:13.327Z,94.50
2019-03-24T04:22:30.476Z,94.50
2019-03-24T04:23:47.089Z,94.70
2019-03-24T04:25:03.811Z,94.80
2019-03-24T04:26:21.273Z,94.90
2019-03-24T04:27:37.621Z,94.90
2019-03-24T04:28:54.250Z,94.90
2019-03-24T04:30:11.353Z,94.90
2019-03-24T04:31:28.092Z,94.90
2019-03-24T04:32:44.494Z,94.90
2019-03-24T04:34:01.009Z,94.90
2019-03-24T04:35:17.379Z,94.90
2019-03-24T04:36:33.891Z,94.80
2019-03-24T04:37:51.109Z,94.80
2019-03-24T04:39:07.650Z,94.80
2019-03-24T04:40:24.090Z,94.70
2019-03-24T04:41:40.589Z,94.70
2019-03-24T04:42:57.052Z,94.60
2019-03-24T04:44:13.488Z,94.60
2019-03-24T04:45:29.837Z,94.60
2019-03-24T04:46:46.219Z,94.60
2019-03-24T04:48:02.540Z,94.60
2019-03-24T04:49:19.186Z,94.60
2019-03-24T04:50:35.649Z,94.70
2019-03-24T04:51:52.017Z,94.80
2019-03-24T04:53:09.048Z,94.90
2019-03-24T04:54:25.816Z,95.00
2019-03-24T04:55:44.992Z,95.00
2019-03-24T04:57:01.825Z,95.20
2019-03-24T04:58:18.297Z,95.30
2019-03-24T04:59:34.604Z,95.40
2019-03-24T05:00:51.496Z,95.40
2019-03-24T05:02:08.719Z,95.40
2019-03-24T05:03:25.081Z,95.40
2019-03-24T05:04:41.556Z,95.40
2019-03-24T05:05:58.121Z,95.40
2019-03-24T05:07:15.359Z,95.40
2019-03-24T05:08:32.097Z,95.60
2019-03-24T05:09:48.944Z,95.60
2019-03-24T05:11:05.250Z,95.30
2019-03-24T05:12:21.926Z,95.10
2019-03-24T05:13:37.490Z,95.00
2019-03-24T05:15:20.865Z,95.00
2019-03-24T05:16:45.324Z,95.20
2019-03-24T05:18:01.761Z,95.40
2019-03-24T05:19:18.217Z,95.50
2019-03-24T05:20:35.405Z,95.60
2019-03-24T05:21:51.741Z,95.80
2019-03-24T05:23:08.211Z,96.00
2019-03-24T05:24:24.526Z,96.10
2019-03-24T05:25:40.923Z,96.20
2019-03-24T05:26:57.780Z,96.30
2019-03-24T05:28:14.238Z,96.30
2019-03-24T05:29:30.484Z,96.40
2019-03-24T05:30:47.046Z,96.40
2019-03-24T05:32:04.031Z,96.30
2019-03-24T05:33:21.261Z,96.30
2019-03-24T05:34:38.460Z,96.10
2019-03-24T05:35:55.589Z,96.10
2019-03-24T05:37:12.221Z,96.10
2019-03-24T05:38:28.829Z,96.20
2019-03-24T05:39:45.252Z,96.10
2019-03-24T05:41:02.232Z,96.00
2019-03-24T05:42:18.815Z,95.90
2019-03-24T05:43:35.480Z,95.80
2019-03-24T05:44:52.590Z,95.70
2019-03-24T05:46:09.171Z,95.50
2019-03-24T05:47:25.521Z,95.30
2019-03-24T05:48:42.077Z,95.10
2019-03-24T05:50:00.331Z,94.70
2019-03-24T05:51:17.538Z,94.50
2019-03-24T05:52:34.096Z,93.80
2019-03-24T05:53:50.940Z,93.40
2019-03-24T05:55:07.300Z,93.20
2019-03-24T05:56:23.809Z,93.10
2019-03-24T05:57:40.778Z,92.50
2019-03-24T05:58:57.313Z,92.40
2019-03-24T06:00:13.861Z,92.10
2019-03-24T06:01:30.222Z,91.90
2019-03-24T06:02:46.736Z,91.70
2019-03-24T06:04:03.364Z,91.30
2019-03-24T06:05:19.757Z,91.20
2019-03-24T06:06:36.234Z,91.00
2019-03-24T06:07:52.628Z,90.70
2019-03-24T06:09:08.928Z,90.40
2019-03-24T06:10:25.402Z,89.90
2019-03-24T06:11:40.928Z,88.80
2019-03-24T06:13:05.370Z,87.70
2019-03-24T06:14:29.720Z,86.10
2019-03-24T06:15:48.063Z,84.30
2019-03-24T06:17:04.598Z,83.50
2019-03-24T06:18:21.020Z,82.40
2019-03-24T06:19:37.788Z,81.20
2019-03-24T06:20:54.209Z,80.20
2019-03-24T06:22:10.596Z,79.20
2019-03-24T06:23:27.598Z,77.90
2019-03-24T06:24:44.640Z,77.20
2019-03-24T06:26:01.035Z,75.30
2019-03-24T06:27:17.344Z,73.10
2019-03-24T06:28:33.930Z,72.00
2019-03-24T06:29:50.457Z,70.80
2019-03-24T06:31:07.011Z,70.50
2019-03-24T06:32:23.796Z,69.50
2019-03-24T06:33:40.361Z,68.70
2019-03-24T06:34:56.810Z,67.70
2019-03-24T06:36:13.506Z,67.20
2019-03-24T06:37:29.868Z,65.70
2019-03-24T06:38:46.676Z,64.00
2019-03-24T06:40:03.345Z,63.20
2019-03-24T06:41:18.951Z,62.10
2019-03-24T06:42:43.391Z,61.10
2019-03-24T06:43:59.945Z,60.40
2019-03-24T06:45:27.757Z,59.80
2019-03-24T06:46:35.213Z,58.40
2019-03-24T06:47:57.930Z,57.40
2019-03-24T06:49:14.643Z,56.50
2019-03-24T06:50:31.946Z,55.60
2019-03-24T06:51:48.586Z,54.00
2019-03-24T06:53:05.150Z,52.50
2019-03-24T06:54:20.707Z,51.80
2019-03-24T06:55:45.062Z,50.50
2019-03-24T06:57:01.904Z,49.90
2019-03-24T06:58:18.421Z,49.30
2019-03-24T06:59:35.412Z,48.50
2019-03-24T07:00:51.795Z,47.80
2019-03-24T07:02:08.464Z,47.00
2019-03-24T07:03:25.633Z,46.00
2019-03-24T07:04:42.024Z,45.20
2019-03-24T07:05:59.153Z,44.10
2019-03-24T07:07:15.937Z,42.50
2019-03-24T07:08:32.540Z,41.80
2019-03-24T07:09:48.911Z,41.80
2019-03-24T07:11:10.501Z,41.60
2019-03-24T07:12:23.303Z,40.90
2019-03-24T07:13:39.759Z,40.20
2019-03-24T07:14:56.157Z,40.30
2019-03-24T07:16:12.665Z,40.00
2019-03-24T07:17:29.405Z,39.30
2019-03-24T07:18:45.908Z,38.90
2019-03-24T07:20:02.849Z,38.40
2019-03-24T07:21:19.194Z,38.30
2019-03-24T07:22:35.714Z,37.70
2019-03-24T07:23:52.085Z,37.30
2019-03-24T07:25:08.594Z,35.40
2019-03-24T07:26:25.522Z,36.60
2019-03-24T07:27:42.029Z,38.30
2019-03-24T07:28:58.384Z,39.10
2019-03-24T07:30:14.760Z,39.70
2019-03-24T07:31:31.352Z,39.30
2019-03-24T07:32:47.761Z,38.30
2019-03-24T07:34:04.231Z,39.10
2019-03-24T07:35:20.766Z,38.90
2019-03-24T07:36:37.045Z,38.30
2019-03-24T07:37:54.456Z,38.30
2019-03-24T07:39:11.241Z,36.90
2019-03-24T07:40:28.429Z,37.90
2019-03-24T07:41:45.023Z,39.00
2019-03-24T07:43:01.333Z,38.30
2019-03-24T07:44:17.632Z,37.70
2019-03-24T07:45:33.973Z,37.20
2019-03-24T07:46:50.798Z,36.40
2019-03-24T07:48:07.061Z,36.30
2019-03-24T07:49:23.629Z,36.60
2019-03-24T07:50:39.857Z,38.50
2019-03-24T07:51:56.381Z,36.60
2019-03-24T07:53:13.640Z,37.20
2019-03-24T07:54:30.164Z,37.20
2019-03-24T07:55:47.391Z,38.20
2019-03-24T07:57:04.609Z,37.00
2019-03-24T07:58:21.101Z,35.90
2019-03-24T07:59:38.472Z,36.90
2019-03-24T08:00:53.964Z,36.20
2019-03-24T08:02:18.440Z,35.30
2019-03-24T08:03:35.420Z,34.80
2019-03-24T08:04:52.603Z,33.10
2019-03-24T08:06:09.174Z,32.40
2019-03-24T08:07:25.596Z,31.60
2019-03-24T08:08:44.502Z,31.00
2019-03-24T08:10:00.658Z,29.60
2019-03-24T08:11:17.190Z,29.70
2019-03-24T08:12:33.928Z,29.40
2019-03-24T08:13:53.902Z,29.00
2019-03-24T08:15:08.681Z,28.50
2019-03-24T08:16:24.082Z,27.80
2019-03-24T08:17:41.224Z,27.90
2019-03-24T08:18:57.701Z,27.50
2019-03-24T08:20:14.235Z,26.60
2019-03-24T08:21:30.840Z,27.10
2019-03-24T08:22:47.320Z,27.20
2019-03-24T08:24:02.875Z,26.90
2019-03-24T08:25:19.999Z,26.70
2019-03-24T08:26:37.073Z,26.40
2019-03-24T08:27:53.614Z,26.10
2019-03-24T08:29:09.890Z,26.00
2019-03-24T08:30:28.706Z,25.70
2019-03-24T08:31:44.806Z,25.60
2019-03-24T08:33:01.788Z,25.10
2019-03-24T08:34:18.571Z,24.80
2019-03-24T08:35:35.871Z,24.90
2019-03-24T08:36:52.293Z,24.70
2019-03-24T08:38:09.297Z,24.50
2019-03-24T08:39:25.960Z,24.40
2019-03-24T08:40:42.452Z,24.50
2019-03-24T08:41:59.682Z,24.40
2019-03-24T08:43:20.362Z,24.30
2019-03-24T08:44:36.994Z,23.40
2019-03-24T08:45:54.047Z,24.70
2019-03-24T08:47:10.713Z,25.80
2019-03-24T08:48:27.370Z,25.30
2019-03-24T08:49:43.818Z,26.30
2019-03-24T08:51:00.156Z,27.40
2019-03-24T08:52:17.346Z,27.70
2019-03-24T08:53:33.899Z,27.20
2019-03-24T08:54:50.296Z,26.70
2019-03-24T08:56:07.289Z,27.80
2019-03-24T08:57:23.966Z,28.40
2019-03-24T08:58:40.483Z,28.90
2019-03-24T08:59:56.895Z,28.50
2019-03-24T09:01:12.375Z,28.00
2019-03-24T09:02:36.729Z,27.30
2019-03-24T09:03:53.066Z,27.20
2019-03-24T09:05:10.019Z,27.00
2019-03-24T09:06:26.553Z,26.90
2019-03-24T09:07:43.077Z,26.40
2019-03-24T09:09:00.325Z,25.90
2019-03-24T09:10:16.921Z,25.80
2019-03-24T09:11:33.321Z,25.40
2019-03-24T09:12:49.803Z,25.30
2019-03-24T09:14:06.509Z,25.10
2019-03-24T09:15:22.889Z,25.00
2019-03-24T09:16:39.377Z,25.00
2019-03-24T09:17:56.543Z,24.90
2019-03-24T09:19:13.193Z,24.60
2019-03-24T09:20:29.571Z,24.30
2019-03-24T09:21:46.374Z,23.90
2019-03-24T09:23:02.952Z,23.20
2019-03-24T09:24:19.951Z,23.30
2019-03-24T09:25:36.292Z,24.10
2019-03-24T09:26:53.299Z,24.00
2019-03-24T09:28:09.872Z,24.00
2019-03-24T09:29:26.750Z,23.90
2019-03-24T09:30:43.638Z,23.60
2019-03-24T09:32:00.621Z,23.50
2019-03-24T09:33:17.042Z,23.30
2019-03-24T09:34:33.606Z,23.20
2019-03-24T09:35:50.256Z,23.00
2019-03-24T09:37:05.752Z,22.60
2019-03-24T09:38:30.177Z,22.60
2019-03-24T09:39:47.438Z,22.70
2019-03-24T09:41:04.254Z,22.50
2019-03-24T09:42:20.747Z,22.40
2019-03-24T09:43:37.063Z,22.40
2019-03-24T09:44:53.520Z,22.50
2019-03-24T09:46:09.967Z,22.30
2019-03-24T09:47:26.507Z,22.20
2019-03-24T09:48:42.764Z,22.20
2019-03-24T09:49:59.551Z,22.00
2019-03-24T09:51:15.964Z,21.50
2019-03-24T09:52:33.022Z,22.10
2019-03-24T09:53:49.563Z,22.60
2019-03-24T09:55:06.355Z,22.50
2019-03-24T09:56:22.669Z,22.40
2019-03-24T09:57:39.724Z,22.40
2019-03-24T09:58:57.165Z,22.40
2019-03-24T10:00:13.771Z,22.30
2019-03-24T10:01:30.514Z,22.70
2019-03-24T10:02:47.035Z,22.70
2019-03-24T10:04:03.861Z,22.70
2019-03-24T10:05:19.446Z,22.90
2019-03-24T10:06:43.851Z,22.60
2019-03-24T10:08:00.464Z,22.90
2019-03-24T10:09:16.799Z,22.50
2019-03-24T10:10:33.413Z,22.50
2019-03-24T10:11:50.129Z,22.80
2019-03-24T10:13:06.659Z,22.90
2019-03-24T10:14:24.793Z,22.70
2019-03-24T10:15:41.367Z,22.90
2019-03-24T10:16:57.797Z,22.70
2019-03-24T10:18:13.341Z,22.70
2019-03-24T10:19:56.708Z,22.60
2019-03-24T10:21:13.381Z,22.90
2019-03-24T10:22:30.609Z,23.00
2019-03-24T10:23:46.984Z,23.00
2019-03-24T10:25:03.534Z,23.30
2019-03-24T10:26:20.008Z,23.20
2019-03-24T10:27:36.377Z,23.10
2019-03-24T10:28:52.706Z,23.10
2019-03-24T10:30:09.822Z,23.40
2019-03-24T10:31:29.099Z,23.60
2019-03-24T10:32:45.410Z,23.50
2019-03-24T10:34:01.922Z,23.40
2019-03-24T10:35:19.410Z,24.40
2019-03-24T10:36:36.968Z,24.80
2019-03-24T10:37:54.273Z,24.60
2019-03-24T10:39:11.373Z,24.50
2019-03-24T10:40:29.170Z,24.90
2019-03-24T10:41:46.538Z,25.10
2019-03-24T10:43:02.955Z,24.80
2019-03-24T10:44:19.332Z,25.30
2019-03-24T10:45:36.598Z,26.10
2019-03-24T10:46:54.753Z,26.80
2019-03-24T10:48:12.279Z,26.90
2019-03-24T10:49:28.745Z,27.20
2019-03-24T10:50:44.335Z,26.50
2019-03-24T10:52:00.795Z,27.40
2019-03-24T10:53:17.708Z,28.00
2019-03-24T10:54:34.274Z,29.10
2019-03-24T10:55:50.622Z,29.60
2019-03-24T10:57:07.196Z,31.00
2019-03-24T10:58:23.660Z,31.40
2019-03-24T10:59:40.311Z,31.80
2019-03-24T11:00:56.897Z,32.40
2019-03-24T11:02:13.441Z,33.20
2019-03-24T11:03:30.551Z,33.80
2019-03-24T11:04:47.207Z,34.90
2019-03-24T11:06:03.770Z,36.80
2019-03-24T11:07:21.097Z,37.40
2019-03-24T11:08:37.505Z,37.80
2019-03-24T11:09:53.909Z,38.40
2019-03-24T11:11:10.308Z,39.10
2019-03-24T11:12:27.605Z,39.40
2019-03-24T11:13:44.691Z,40.10
2019-03-24T11:15:01.253Z,40.40
2019-03-24T11:16:18.501Z,40.50
2019-03-24T11:17:35.044Z,41.10
2019-03-24T11:18:52.357Z,41.30
2019-03-24T11:20:08.607Z,41.80
2019-03-24T11:21:25.117Z,41.90
2019-03-24T11:22:42.398Z,42.40
2019-03-24T11:23:58.018Z,42.80
2019-03-24T11:25:22.481Z,42.90
2019-03-24T11:26:44.225Z,43.30
2019-03-24T11:28:00.676Z,43.60
2019-03-24T11:29:17.079Z,43.80
2019-03-24T11:30:33.840Z,44.20
2019-03-24T11:31:51.108Z,44.40
2019-03-24T11:33:07.766Z,45.40
2019-03-24T11:34:24.970Z,45.80
2019-03-24T11:35:41.892Z,45.40
2019-03-24T11:36:58.589Z,45.50
2019-03-24T11:38:15.052Z,45.50
2019-03-24T11:39:31.590Z,45.70
2019-03-24T11:40:48.803Z,45.90
2019-03-24T11:42:06.055Z,45.90
2019-03-24T11:43:22.461Z,46.40
2019-03-24T11:44:39.733Z,47.10
2019-03-24T11:45:56.450Z,47.30
2019-03-24T11:47:13.227Z,47.20
2019-03-24T11:48:29.585Z,47.50
2019-03-24T11:49:48.945Z,47.60
2019-03-24T11:51:04.368Z,47.60
2019-03-24T11:52:21.479Z,47.40
2019-03-24T11:53:38.181Z,48.50
2019-03-24T11:54:54.805Z,48.70
2019-03-24T11:56:11.192Z,48.90
2019-03-24T11:57:26.663Z,49.40
2019-03-24T11:58:51.243Z,48.50
2019-03-24T12:00:07.771Z,48.80
2019-03-24T12:01:24.273Z,49.30
2019-03-24T12:02:40.794Z,49.30
2019-03-24T12:03:57.449Z,49.70
2019-03-24T12:05:13.870Z,49.20
2019-03-24T12:06:30.224Z,50.00
2019-03-24T12:07:47.122Z,49.20
2019-03-24T12:09:04.936Z,49.30
2019-03-24T12:10:21.487Z,49.80
2019-03-24T12:11:38.605Z,49.90
2019-03-24T12:12:55.581Z,49.60
2019-03-24T12:14:13.369Z,49.40
2019-03-24T12:15:29.705Z,49.00
2019-03-24T12:16:47.040Z,48.90
2019-03-24T12:18:03.499Z,49.10
2019-03-24T12:19:19.915Z,49.40
2019-03-24T12:20:37.609Z,49.70
2019-03-24T12:21:54.821Z,49.90
2019-03-24T12:23:11.526Z,49.60
2019-03-24T12:24:28.836Z,49.90
2019-03-24T12:25:48.206Z,50.10
2019-03-24T12:27:04.953Z,49.80
2019-03-24T12:28:21.749Z,49.90
2019-03-24T12:29:38.034Z,49.90
2019-03-24T12:30:54.534Z,50.30
2019-03-24T12:32:11.511Z,49.80
2019-03-24T12:33:27.978Z,49.90
2019-03-24T12:34:45.205Z,50.00
2019-03-24T12:36:01.600Z,50.30
2019-03-24T12:37:18.889Z,49.80
2019-03-24T12:38:36.078Z,49.90
2019-03-24T12:39:52.554Z,49.10
2019-03-24T12:41:09.013Z,49.10
2019-03-24T12:42:25.230Z,49.40
2019-03-24T12:43:41.761Z,49.70
2019-03-24T12:44:58.328Z,49.70
2019-03-24T12:46:15.008Z,49.60
2019-03-24T12:47:32.193Z,49.60
2019-03-24T12:48:49.006Z,49.40
2019-03-24T12:50:09.245Z,49.70
2019-03-24T12:51:25.526Z,49.80
2019-03-24T12:52:41.999Z,49.70
2019-03-24T12:53:59.290Z,49.20
2019-03-24T12:55:15.704Z,49.10
2019-03-24T12:56:32.922Z,50.10
2019-03-24T12:57:50.449Z,49.40
2019-03-24T12:59:07.791Z,49.30
2019-03-24T13:00:24.116Z,49.20
2019-03-24T13:01:40.530Z,48.80
2019-03-24T13:02:57.799Z,48.70
2019-03-24T13:04:14.329Z,48.10
2019-03-24T13:05:30.760Z,48.30
2019-03-24T13:06:47.228Z,47.70
2019-03-24T13:08:05.264Z,47.60
2019-03-24T13:09:22.123Z,47.30
2019-03-24T13:10:39.046Z,47.50
2019-03-24T13:11:55.577Z,46.60
2019-03-24T13:13:12.157Z,46.40
2019-03-24T13:14:30.656Z,47.00
2019-03-24T13:15:46.972Z,46.50
2019-03-24T13:17:03.247Z,46.70
2019-03-24T13:18:19.753Z,47.10
2019-03-24T13:19:37.011Z,47.10
2019-03-24T13:20:53.508Z,47.40
2019-03-24T13:22:11.685Z,47.30
2019-03-24T13:23:28.912Z,46.90
2019-03-24T13:24:45.394Z,46.70
2019-03-24T13:26:01.784Z,46.40
2019-03-24T13:27:19.021Z,47.20
2019-03-24T13:28:35.794Z,47.20
2019-03-24T13:29:52.175Z,47.50
2019-03-24T13:31:08.915Z,47.50
2019-03-24T13:32:25.205Z,47.80
2019-03-24T13:33:41.818Z,48.30
2019-03-24T13:35:00.333Z,48.50
2019-03-24T13:36:24.813Z,48.70
2019-03-24T13:37:41.439Z,48.80
2019-03-24T13:38:58.360Z,49.10
2019-03-24T13:40:14.630Z,49.50
2019-03-24T13:41:31.037Z,49.20
2019-03-24T13:42:47.617Z,49.50
2019-03-24T13:44:04.248Z,49.30
2019-03-24T13:45:21.005Z,49.30
2019-03-24T13:46:37.609Z,49.30
2019-03-24T13:47:53.934Z,49.10
2019-03-24T13:49:11.053Z,48.70
2019-03-24T13:50:31.778Z,48.90
2019-03-24T13:51:46.751Z,48.90
2019-03-24T13:53:03.192Z,48.70
2019-03-24T13:54:18.731Z,48.90
2019-03-24T13:55:43.133Z,48.90
2019-03-24T13:56:59.569Z,48.60
2019-03-24T13:58:16.094Z,48.90
2019-03-24T13:59:32.662Z,48.80
2019-03-24T14:00:49.357Z,48.90
2019-03-24T14:02:06.369Z,48.80
2019-03-24T14:03:22.652Z,48.70
2019-03-24T14:04:39.003Z,48.70
2019-03-24T14:05:55.865Z,48.40
2019-03-24T14:07:12.699Z,48.70
2019-03-24T14:08:29.718Z,48.70
2019-03-24T14:09:46.258Z,48.50
2019-03-24T14:11:03.273Z,48.60
2019-03-24T14:12:19.976Z,49.20
2019-03-24T14:13:36.327Z,49.20
2019-03-24T14:14:53.007Z,49.80
2019-03-24T14:16:09.367Z,49.70
2019-03-24T14:17:25.911Z,49.20
2019-03-24T14:18:42.508Z,49.10
2019-03-24T14:20:00.837Z,49.30
2019-03-24T14:21:17.489Z,49.90
2019-03-24T14:22:34.098Z,50.20
2019-03-24T14:23:51.210Z,50.40
2019-03-24T14:25:07.823Z,50.40
2019-03-24T14:26:24.961Z,50.40
2019-03-24T14:27:41.586Z,50.50
2019-03-24T14:28:58.841Z,50.20
2019-03-24T14:30:15.264Z,50.60
2019-03-24T14:31:30.720Z,50.70
2019-03-24T14:32:55.141Z,50.80
2019-03-24T14:34:11.393Z,50.80
2019-03-24T14:35:27.933Z,50.70
2019-03-24T14:36:44.368Z,50.80
2019-03-24T14:38:00.716Z,51.10
2019-03-24T14:39:17.002Z,51.50
2019-03-24T14:40:33.445Z,51.60
2019-03-24T14:41:50.013Z,51.60
2019-03-24T14:43:07.252Z,51.80
2019-03-24T14:44:24.517Z,51.90
2019-03-24T14:45:41.306Z,52.20
2019-03-24T14:46:58.082Z,52.30
2019-03-24T14:48:14.517Z,52.50
2019-03-24T14:49:30.954Z,52.50
2019-03-24T14:50:54.337Z,52.50
2019-03-24T14:52:05.758Z,52.80
2019-03-24T14:53:22.204Z,52.90
2019-03-24T14:54:39.752Z,53.20
2019-03-24T14:55:56.628Z,53.10
2019-03-24T14:57:13.858Z,53.20
2019-03-24T14:58:29.359Z,53.40
2019-03-24T14:59:46.501Z,53.50
2019-03-24T15:01:03.498Z,53.60
2019-03-24T15:02:20.488Z,53.70
2019-03-24T15:03:37.733Z,53.80
2019-03-24T15:04:54.925Z,53.80
2019-03-24T15:06:11.354Z,54.00
2019-03-24T15:07:28.681Z,53.90
2019-03-24T15:08:45.229Z,53.80
2019-03-24T15:10:01.854Z,54.10
2019-03-24T15:11:19.900Z,53.50
2019-03-24T15:12:37.001Z,53.70
2019-03-24T15:13:53.413Z,54.10
2019-03-24T15:15:10.568Z,54.30
2019-03-24T15:16:27.126Z,55.00
2019-03-24T15:17:43.733Z,54.30
2019-03-24T15:19:00.849Z,54.30
2019-03-24T15:20:17.303Z,54.30
2019-03-24T15:21:33.891Z,54.70
2019-03-24T15:22:50.526Z,54.80
2019-03-24T15:24:07.462Z,55.00
2019-03-24T15:25:22.955Z,55.20
2019-03-24T15:28:24.008Z,54.90
2019-03-24T15:29:40.893Z,55.10
2019-03-24T15:30:57.407Z,55.40
2019-03-24T15:32:14.601Z,55.70
2019-03-24T15:33:31.115Z,55.70
2019-03-24T15:34:48.172Z,56.00
2019-03-24T15:36:04.612Z,56.30
2019-03-24T15:37:21.840Z,56.50
2019-03-24T15:38:38.406Z,56.80
2019-03-24T15:39:55.688Z,57.10
2019-03-24T15:41:12.260Z,57.20
2019-03-24T15:42:29.407Z,57.40
2019-03-24T15:43:46.534Z,57.60
2019-03-24T15:45:03.561Z,58.00
2019-03-24T15:46:20.168Z,57.80
2019-03-24T15:47:36.699Z,58.20
2019-03-24T15:48:53.048Z,58.40
2019-03-24T15:50:10.086Z,58.90
2019-03-24T15:51:26.653Z,59.00
2019-03-24T15:52:43.037Z,59.10
2019-03-24T15:54:00.189Z,59.10
2019-03-24T15:55:16.635Z,59.30
2019-03-24T15:56:33.932Z,59.40
2019-03-24T15:57:50.520Z,59.60
2019-03-24T15:59:07.291Z,59.70
2019-03-24T16:00:24.313Z,60.00
2019-03-24T16:01:40.905Z,60.10
2019-03-24T16:02:57.272Z,60.40
2019-03-24T16:04:14.382Z,60.50
2019-03-24T16:05:33.541Z,60.60
2019-03-24T16:06:49.981Z,60.70
2019-03-24T16:08:06.853Z,60.70
2019-03-24T16:09:23.300Z,60.80
2019-03-24T16:10:40.080Z,60.80
2019-03-24T16:11:56.813Z,60.90
2019-03-24T16:13:13.338Z,61.00
2019-03-24T16:14:29.919Z,61.10
2019-03-24T16:15:46.501Z,61.30
2019-03-24T16:17:02.974Z,61.40
2019-03-24T16:18:19.924Z,61.60
2019-03-24T16:19:36.421Z,61.60
2019-03-24T16:20:52.901Z,61.70
2019-03-24T16:22:10.118Z,61.90
2019-03-24T16:23:26.671Z,62.00
2019-03-24T16:24:43.908Z,62.20
2019-03-24T16:26:00.964Z,62.30
2019-03-24T16:27:18.435Z,62.40
2019-03-24T16:28:34.993Z,62.60
2019-03-24T16:29:51.417Z,62.70
2019-03-24T16:31:08.324Z,62.70
2019-03-24T16:32:24.965Z,62.70
2019-03-24T16:33:41.539Z,62.80
2019-03-24T16:35:01.820Z,62.90